Time;durP1;ratioP1;P1;durP2;ratioP2;P2;SDS_P1;SDS_P2;PMS_P1;PMS_P2;Temp;Humidity;BMP_temperature;BMP_pressure;BME280_temperature;BME280_humidity;BME280_pressure;Samples;Min_cycle;Max_cycle;Signal;HPM_P1;HPM_P2
2021/06/05 00:01:52;;;;;;;1.67;1.20;;;16.50;99.90;;;;;;5058822;28;20290;-73
2021/06/05 00:04:22;;;;;;;2.57;1.37;;;16.40;99.90;;;;;;5059005;28;20199;-72
2021/06/05 00:06:49;;;;;;;3.17;1.60;;;16.40;99.90;;;;;;5058891;28;20233;-73
2021/06/05 00:09:18;;;;;;;6.63;1.40;;;16.50;99.90;;;;;;5055257;28;20195;-72
2021/06/05 00:11:44;;;;;;;3.63;1.43;;;16.60;99.90;;;;;;5046927;28;20244;-74
2021/06/05 00:14:12;;;;;;;2.30;1.50;;;16.40;99.90;;;;;;5046145;28;20294;-74
2021/06/05 00:16:45;;;;;;;1.30;1.10;;;16.30;99.90;;;;;;5031395;28;20194;-73
2021/06/05 00:19:18;;;;;;;3.43;1.37;;;16.10;99.90;;;;;;5073611;28;20523;-73
2021/06/05 00:21:45;;;;;;;3.40;1.30;;;16.00;99.90;;;;;;5056494;28;20749;-72
2021/06/05 00:24:13;;;;;;;1.70;1.20;;;16.00;99.90;;;;;;5052975;28;20198;-74
2021/06/05 00:26:39;;;;;;;4.67;1.40;;;16.00;99.90;;;;;;5051021;28;20233;-72
2021/06/05 00:29:06;;;;;;;1.20;1.10;;;16.00;99.90;;;;;;5058272;28;20312;-73
2021/06/05 00:31:33;;;;;;;2.10;1.20;;;16.00;99.90;;;;;;5052729;28;20199;-72
2021/06/05 00:34:00;;;;;;;2.20;1.37;;;15.90;99.90;;;;;;5038726;28;20230;-74
2021/06/05 00:36:27;;;;;;;3.00;1.20;;;15.80;99.90;;;;;;5050754;28;20202;-72
2021/06/05 00:38:54;;;;;;;1.70;1.07;;;15.80;99.90;;;;;;5060153;28;20191;-73
2021/06/05 00:41:24;;;;;;;2.10;1.23;;;15.70;99.90;;;;;;5057952;28;20198;-72
2021/06/05 00:43:56;;;;;;;4.20;1.40;;;15.50;99.90;;;;;;5058276;28;20191;-72
2021/06/05 00:46:28;;;;;;;1.93;1.37;;;15.60;99.90;;;;;;5052184;28;20226;-72
2021/06/05 00:48:55;;;;;;;2.07;1.27;;;15.70;99.90;;;;;;5046880;28;20667;-73
2021/06/05 00:51:38;;;;;;;1.83;1.37;;;15.50;99.90;;;;;;5053377;28;20233;-72
2021/06/05 00:54:07;;;;;;;2.30;1.70;;;15.40;99.90;;;;;;5058387;28;20463;-73
2021/06/05 00:56:35;;;;;;;2.93;1.43;;;15.50;99.90;;;;;;5053561;28;20209;-72
2021/06/05 00:59:02;;;;;;;4.37;1.40;;;15.60;99.90;;;;;;5050408;28;20199;-72
2021/06/05 01:01:31;;;;;;;3.57;1.30;;;15.60;99.90;;;;;;5050071;28;20286;-73
2021/06/05 01:03:58;;;;;;;2.07;1.40;;;15.60;99.90;;;;;;5052190;28;20282;-72
2021/06/05 01:06:39;;;;;;;2.37;1.20;;;15.50;99.90;;;;;;5058599;28;20674;-74
2021/06/05 01:09:18;;;;;;;3.83;1.30;;;15.50;99.90;;;;;;5057875;28;20199;-72
2021/06/05 01:11:56;;;;;;;1.17;1.00;;;15.50;99.90;;;;;;5057810;28;20206;-71
2021/06/05 01:14:56;;;;;;;1.70;1.17;;;15.50;99.90;;;;;;5057737;28;20211;-72
2021/06/05 01:17:32;;;;;;;2.77;1.37;;;15.50;99.90;;;;;;5062713;28;20270;-70
2021/06/05 01:20:14;;;;;;;3.77;1.33;;;15.30;99.90;;;;;;5056522;28;20273;-71
2021/06/05 01:23:09;;;;;;;4.90;1.30;;;15.40;99.90;;;;;;5059117;28;20195;-73
2021/06/05 01:26:26;;;;;;;3.27;1.37;;;15.40;99.90;;;;;;5055448;28;20222;-73
2021/06/05 01:29:16;;;;;;;1.60;1.30;;;15.30;99.90;;;;;;5052303;28;20221;-74
2021/06/05 01:31:52;;;;;;;5.03;1.50;;;15.30;99.90;;;;;;5059395;28;20194;-75
2021/06/05 01:34:21;;;;;;;2.30;1.30;;;15.30;99.90;;;;;;5060402;28;20229;-77
2021/06/05 01:36:53;;;;;;;2.37;1.20;;;15.40;99.90;;;;;;5043488;28;20279;-77
2021/06/05 01:39:38;;;;;;;1.70;1.27;;;15.40;99.90;;;;;;5045211;28;20224;-76
2021/06/05 01:42:29;;;;;;;6.50;1.30;;;15.50;99.90;;;;;;5062523;28;20191;-76
2021/06/05 01:45:00;;;;;;;4.30;1.30;;;15.50;99.90;;;;;;5053337;28;20226;-76
2021/06/05 01:47:27;;;;;;;2.73;1.20;;;15.50;99.90;;;;;;5044113;28;20187;-76
2021/06/05 01:49:57;;;;;;;2.13;1.50;;;15.50;99.90;;;;;;5045799;28;20308;-77
2021/06/05 01:52:34;;;;;;;2.97;1.17;;;15.50;99.90;;;;;;5056894;28;20191;-77
2021/06/05 01:55:24;;;;;;;1.40;1.30;;;15.50;99.90;;;;;;5061255;28;20262;-76
2021/06/05 01:58:03;;;;;;;3.50;1.50;;;15.60;99.90;;;;;;5062410;28;20201;-77
2021/06/05 02:00:47;;;;;;;3.57;1.57;;;15.50;99.90;;;;;;5056111;28;20266;-76
2021/06/05 02:03:27;;;;;;;2.90;1.40;;;15.40;99.90;;;;;;5054619;28;20285;-77
2021/06/05 02:06:04;;;;;;;3.30;1.60;;;15.40;99.90;;;;;;5058052;28;20214;-78
2021/06/05 02:08:41;;;;;;;3.20;1.50;;;15.40;99.90;;;;;;5064112;28;20186;-77
2021/06/05 02:11:21;;;;;;;1.60;1.40;;;15.50;99.90;;;;;;5047531;28;20632;-77
2021/06/05 02:14:19;;;;;;;1.80;1.50;;;15.50;99.90;;;;;;5045333;28;21679;-77
2021/06/05 02:16:52;;;;;;;3.77;1.50;;;15.50;99.90;;;;;;5063968;28;20741;-75
2021/06/05 02:19:36;;;;;;;1.87;1.30;;;15.50;99.90;;;;;;5060302;28;20285;-76
2021/06/05 02:22:12;;;;;;;4.00;1.70;;;15.60;99.90;;;;;;5064500;28;20615;-75
2021/06/05 02:24:53;;;;;;;3.63;1.50;;;15.60;99.90;;;;;;5060211;28;20221;-75
2021/06/05 02:27:24;;;;;;;3.33;1.70;;;15.70;99.90;;;;;;5060440;28;20631;-76
2021/06/05 02:29:52;;;;;;;2.03;1.60;;;15.80;99.90;;;;;;5061289;28;20210;-75
2021/06/05 02:32:25;;;;;;;4.70;1.80;;;15.90;99.90;;;;;;5062772;28;20210;-75
2021/06/05 02:34:55;;;;;;;2.93;1.63;;;16.00;99.90;;;;;;5058053;28;20224;-76
2021/06/05 02:37:29;;;;;;;3.13;1.70;;;16.10;99.90;;;;;;5063177;28;20240;-76
2021/06/05 02:40:20;;;;;;;4.67;1.57;;;16.10;99.90;;;;;;5061606;28;20191;-76
2021/06/05 02:42:47;;;;;;;2.33;1.60;;;16.20;99.90;;;;;;5065222;28;20225;-76
2021/06/05 02:45:43;;;;;;;2.73;1.60;;;16.20;99.90;;;;;;5062998;28;20199;-77
2021/06/05 02:48:11;;;;;;;4.87;1.73;;;16.20;99.90;;;;;;5052892;28;20211;-75
2021/06/05 02:50:45;;;;;;;2.67;1.60;;;16.20;99.90;;;;;;5061967;28;20245;-75
2021/06/05 02:53:12;;;;;;;3.50;2.07;;;16.20;99.90;;;;;;5062330;28;20723;-76
2021/06/05 02:55:41;;;;;;;2.90;1.60;;;16.20;99.90;;;;;;5045234;28;20196;-76
2021/06/05 02:58:09;;;;;;;2.43;1.50;;;16.30;99.90;;;;;;5058389;28;20720;-75
2021/06/05 03:00:43;;;;;;;3.20;1.70;;;16.30;99.90;;;;;;5058746;28;20754;-76
2021/06/05 03:03:11;;;;;;;4.47;1.90;;;16.40;99.90;;;;;;5048239;28;20190;-76
2021/06/05 03:05:40;;;;;;;3.67;1.80;;;16.50;99.90;;;;;;5062799;28;20268;-75
2021/06/05 03:08:12;;;;;;;2.87;1.80;;;16.50;99.90;;;;;;5062538;28;20746;-73
2021/06/05 03:10:39;;;;;;;3.23;1.60;;;16.60;99.90;;;;;;5063418;28;20605;-74
2021/06/05 03:13:09;;;;;;;3.70;1.60;;;16.60;99.90;;;;;;5065516;28;20214;-77
2021/06/05 03:15:37;;;;;;;2.93;1.70;;;16.60;99.90;;;;;;5055571;28;20226;-76
2021/06/05 03:18:05;;;;;;;2.30;1.73;;;16.60;99.90;;;;;;5064357;28;20197;-76
2021/06/05 03:20:41;;;;;;;4.60;1.70;;;16.60;99.90;;;;;;5061233;28;20268;-76
2021/06/05 03:23:10;;;;;;;3.60;2.00;;;16.70;99.90;;;;;;5061294;28;20191;-75
2021/06/05 03:25:37;;;;;;;3.27;1.70;;;16.80;99.90;;;;;;5063290;28;20187;-74
2021/06/05 03:28:05;;;;;;;1.70;1.60;;;16.80;99.90;;;;;;5062763;28;20270;-75
2021/06/05 03:30:33;;;;;;;2.50;1.50;;;16.80;99.90;;;;;;5062931;28;20191;-74
2021/06/05 03:33:00;;;;;;;2.13;1.50;;;16.90;99.90;;;;;;5057651;28;20643;-76
2021/06/05 03:35:26;;;;;;;1.70;1.50;;;17.00;99.90;;;;;;5075443;28;20218;-79
2021/06/05 03:37:53;;;;;;;1.50;1.37;;;16.90;99.90;;;;;;5057175;28;20184;-75
2021/06/05 03:40:25;;;;;;;2.20;1.53;;;16.90;99.90;;;;;;5047354;28;20191;-78
2021/06/05 03:42:53;;;;;;;1.63;1.50;;;16.90;99.90;;;;;;5057879;28;20199;-75
2021/06/05 03:45:20;;;;;;;3.37;1.70;;;17.00;99.90;;;;;;5064542;28;20204;-77
2021/06/05 03:47:47;;;;;;;1.83;1.50;;;17.00;99.90;;;;;;5058706;28;20195;-77
2021/06/05 03:50:19;;;;;;;3.30;1.77;;;17.00;99.90;;;;;;5059865;28;20378;-78
2021/06/05 03:52:45;;;;;;;1.97;1.60;;;17.00;99.90;;;;;;5058773;28;20585;-77
2021/06/05 03:55:13;;;;;;;2.00;1.80;;;17.00;99.90;;;;;;5045164;28;20227;-75
2021/06/05 03:57:40;;;;;;;17.17;2.17;;;17.00;99.90;;;;;;5061303;28;20213;-73
2021/06/05 04:00:12;;;;;;;8.03;1.77;;;16.90;99.90;;;;;;5058390;28;20778;-76
2021/06/05 04:02:40;;;;;;;2.43;1.70;;;16.90;99.90;;;;;;5062519;28;20191;-73
2021/06/05 04:05:08;;;;;;;3.10;1.60;;;16.90;99.90;;;;;;5045626;28;20210;-73
2021/06/05 04:07:35;;;;;;;2.87;1.53;;;16.90;99.90;;;;;;5062776;28;20309;-73
2021/06/05 04:10:04;;;;;;;3.33;1.50;;;16.90;99.90;;;;;;5060062;28;20183;-74
2021/06/05 04:12:31;;;;;;;3.93;1.57;;;17.10;99.90;;;;;;5057490;28;20342;-73
2021/06/05 04:14:57;;;;;;;1.77;1.40;;;17.20;99.90;;;;;;5061425;28;20253;-74
2021/06/05 04:17:23;;;;;;;8.27;1.80;;;17.30;99.90;;;;;;5061148;28;20218;-73
2021/06/05 04:19:50;;;;;;;2.97;1.70;;;17.40;99.90;;;;;;5062591;28;20225;-75
2021/06/05 04:22:16;;;;;;;2.07;1.70;;;17.40;99.90;;;;;;5060459;28;20194;-74
2021/06/05 04:24:43;;;;;;;3.07;1.60;;;17.50;99.90;;;;;;5084931;28;20199;-75
2021/06/05 04:27:10;;;;;;;4.27;1.70;;;17.70;99.90;;;;;;5042646;28;20623;-75
2021/06/05 04:29:37;;;;;;;7.80;2.03;;;17.80;99.90;;;;;;5059951;28;20647;-75
2021/06/05 04:32:06;;;;;;;3.73;1.90;;;17.80;99.90;;;;;;5059782;28;20187;-76
2021/06/05 04:34:32;;;;;;;2.77;1.40;;;17.90;99.90;;;;;;5058358;28;20207;-76
2021/06/05 04:36:59;;;;;;;2.07;1.57;;;18.00;99.90;;;;;;5059443;28;20189;-75
2021/06/05 04:39:26;;;;;;;3.83;1.60;;;18.10;99.90;;;;;;5029186;28;20226;-76
2021/06/05 04:41:52;;;;;;;4.40;1.43;;;18.10;99.90;;;;;;5060887;28;20244;-76
2021/06/05 04:44:19;;;;;;;2.80;1.50;;;18.10;99.90;;;;;;5060475;28;20192;-76
2021/06/05 04:46:45;;;;;;;4.97;1.53;;;18.10;99.90;;;;;;5039003;28;20195;-76
2021/06/05 04:49:12;;;;;;;3.70;2.07;;;18.20;99.90;;;;;;5041075;28;20317;-75
2021/06/05 04:51:39;;;;;;;2.07;1.40;;;18.30;99.90;;;;;;5042099;28;20772;-77
2021/06/05 04:54:08;;;;;;;3.90;1.57;;;18.40;99.90;;;;;;5059016;28;20405;-76
2021/06/05 04:56:43;;;;;;;2.57;1.63;;;18.50;99.90;;;;;;5062645;28;20209;-77
2021/06/05 04:59:13;;;;;;;2.97;1.53;;;18.70;99.90;;;;;;5045622;28;20275;-75
2021/06/05 05:01:40;;;;;;;3.60;1.50;;;18.80;99.90;;;;;;5059687;28;20217;-75
2021/06/05 05:04:07;;;;;;;1.60;1.50;;;18.90;99.90;;;;;;5061994;28;20197;-76
2021/06/05 05:06:35;;;;;;;4.33;1.60;;;18.90;99.90;;;;;;5057931;28;20219;-76
2021/06/05 05:09:07;;;;;;;3.67;1.50;;;19.00;99.90;;;;;;5062039;28;20296;-75
2021/06/05 05:11:34;;;;;;;4.07;1.73;;;19.00;99.90;;;;;;5056896;28;20212;-75
2021/06/05 05:14:00;;;;;;;3.90;1.87;;;19.10;99.90;;;;;;5045523;28;20568;-76
2021/06/05 05:16:26;;;;;;;7.87;1.80;;;19.20;99.90;;;;;;5040524;28;20190;-76
2021/06/05 05:18:54;;;;;;;3.80;1.70;;;19.30;99.90;;;;;;5058514;28;20179;-74
2021/06/05 05:21:22;;;;;;;3.57;1.57;;;19.40;99.90;;;;;;5063795;28;20202;-74
2021/06/05 05:23:50;;;;;;;4.33;1.60;;;19.60;99.90;;;;;;5057545;28;20234;-72
2021/06/05 05:26:19;;;;;;;5.57;1.70;;;19.70;99.90;;;;;;5059113;28;20194;-73
2021/06/05 05:28:46;;;;;;;2.60;1.50;;;19.70;99.90;;;;;;5061940;28;20190;-73
2021/06/05 05:31:20;;;;;;;3.53;1.60;;;19.70;99.90;;;;;;5059981;28;20192;-72
2021/06/05 05:33:46;;;;;;;3.00;2.00;;;19.90;99.90;;;;;;5042497;28;20229;-72
2021/06/05 05:36:39;;;;;;;2.27;1.67;;;19.90;99.90;;;;;;5058408;28;20182;-74
2021/06/05 05:39:14;;;;;;;2.07;1.70;;;19.90;99.90;;;;;;5084755;28;20183;-71
2021/06/05 05:41:41;;;;;;;4.53;1.60;;;20.10;99.90;;;;;;5044315;28;20201;-74
2021/06/05 05:44:07;;;;;;;5.53;1.50;;;20.10;99.90;;;;;;5056559;28;20217;-70
2021/06/05 05:46:35;;;;;;;2.13;1.33;;;20.00;99.90;;;;;;5059852;28;20265;-70
2021/06/05 05:49:02;;;;;;;3.00;1.50;;;20.10;99.90;;;;;;5059120;28;20223;-73
2021/06/05 05:51:33;;;;;;;4.03;1.60;;;20.40;99.90;;;;;;5056802;28;20244;-73
2021/06/05 05:53:59;;;;;;;1.80;1.40;;;20.40;99.90;;;;;;5062433;28;20696;-73
2021/06/05 05:56:30;;;;;;;2.87;1.47;;;20.50;99.90;;;;;;5058758;28;20708;-73
2021/06/05 05:58:58;;;;;;;2.87;1.30;;;20.90;99.90;;;;;;5056832;28;20194;-73
2021/06/05 06:01:27;;;;;;;7.57;1.30;;;21.30;98.70;;;;;;5045201;28;20298;-73
2021/06/05 06:03:56;;;;;;;2.20;1.50;;;21.60;96.80;;;;;;5058955;28;20234;-73
2021/06/05 06:06:26;;;;;;;3.53;1.40;;;21.70;97.30;;;;;;5061250;28;20314;-73
2021/06/05 06:08:54;;;;;;;2.33;1.33;;;21.70;96.40;;;;;;5084163;28;20666;-72
2021/06/05 06:11:20;;;;;;;2.43;1.50;;;22.00;96.50;;;;;;5059653;28;20288;-72
2021/06/05 06:13:47;;;;;;;2.50;1.40;;;22.10;96.00;;;;;;5061287;28;20560;-73
2021/06/05 06:16:17;;;;;;;3.60;1.60;;;22.20;94.60;;;;;;5040875;28;20191;-73
2021/06/05 06:18:44;;;;;;;6.73;1.50;;;22.10;96.70;;;;;;5057437;28;20179;-72
2021/06/05 06:21:15;;;;;;;4.80;1.50;;;21.90;95.70;;;;;;5059585;28;20564;-73
2021/06/05 06:23:43;;;;;;;3.17;1.33;;;21.90;96.80;;;;;;5042558;28;20193;-73
2021/06/05 06:26:27;;;;;;;3.10;1.50;;;21.90;97.10;;;;;;5055073;28;20289;-72
2021/06/05 06:28:56;;;;;;;4.00;1.70;;;21.80;97.90;;;;;;5061729;28;20194;-73
2021/06/05 06:31:24;;;;;;;4.50;1.50;;;21.90;97.50;;;;;;5044222;28;20202;-73
2021/06/05 06:33:51;;;;;;;4.10;1.30;;;21.90;96.70;;;;;;5053150;28;20215;-72
2021/06/05 06:36:21;;;;;;;5.17;1.60;;;22.20;96.70;;;;;;5057248;28;20647;-72
2021/06/05 06:38:49;;;;;;;6.50;1.80;;;22.60;98.00;;;;;;5044512;28;20612;-73
2021/06/05 06:41:28;;;;;;;2.93;1.60;;;22.90;98.60;;;;;;5059358;28;20196;-73
2021/06/05 06:44:01;;;;;;;3.00;1.90;;;22.80;98.30;;;;;;5085338;28;20194;-72
2021/06/05 06:46:35;;;;;;;2.73;1.67;;;22.80;96.70;;;;;;5059191;28;20203;-73
2021/06/05 06:49:04;;;;;;;1.80;1.40;;;23.30;97.70;;;;;;5057182;28;20191;-73
2021/06/05 06:51:32;;;;;;;3.00;1.80;;;23.10;98.00;;;;;;5057422;28;20708;-72
2021/06/05 06:53:58;;;;;;;6.60;1.60;;;23.20;98.20;;;;;;5063682;28;20225;-73
2021/06/05 06:56:25;;;;;;;6.23;2.13;;;23.50;97.80;;;;;;5062085;28;20188;-72
2021/06/05 06:58:52;;;;;;;5.23;1.73;;;23.60;99.00;;;;;;5061322;28;20226;-72
2021/06/05 07:01:20;;;;;;;3.83;1.60;;;23.90;98.20;;;;;;5057660;28;20840;-72
2021/06/05 07:03:47;;;;;;;2.27;1.50;;;24.00;99.20;;;;;;5064181;28;20278;-72
2021/06/05 07:06:15;;;;;;;2.20;1.50;;;24.10;99.00;;;;;;5057044;28;20238;-73
2021/06/05 07:08:43;;;;;;;6.03;1.73;;;23.80;99.90;;;;;;5064105;28;20200;-73
2021/06/05 07:11:18;;;;;;;3.83;1.65;;;23.80;99.60;;;;;;5062539;28;20211;-73
2021/06/05 07:13:45;;;;;;;3.37;1.67;;;24.30;99.90;;;;;;5045970;28;20214;-73
2021/06/05 07:16:12;;;;;;;3.38;2.10;;;24.40;99.90;;;;;;5058837;28;20614;-73
2021/06/05 07:18:40;;;;;;;7.97;1.73;;;24.60;99.90;;;;;;5061027;28;20285;-71
2021/06/05 07:21:09;;;;;;;10.45;2.00;;;24.50;98.70;;;;;;5062063;28;20709;-72
2021/06/05 07:23:38;;;;;;;5.37;1.90;;;24.60;99.90;;;;;;5063427;28;20190;-73
2021/06/05 07:26:13;;;;;;;4.38;1.90;;;24.70;99.90;;;;;;5061367;28;20303;-71
2021/06/05 07:28:44;;;;;;;4.20;1.73;;;24.90;99.10;;;;;;5051632;28;20782;-73
2021/06/05 07:31:17;;;;;;;6.70;1.80;;;24.90;98.00;;;;;;5043293;28;20199;-73
2021/06/05 07:33:45;;;;;;;5.85;2.10;;;25.00;99.90;;;;;;5058138;28;20242;-72
2021/06/05 07:36:30;;;;;;;3.83;1.80;;;25.10;98.90;;;;;;5061186;28;20252;-73
2021/06/05 07:38:57;;;;;;;6.97;1.88;;;25.10;99.90;;;;;;5060276;28;20195;-73
2021/06/05 07:41:26;;;;;;;2.67;1.80;;;25.30;99.90;;;;;;5060018;28;20213;-73
2021/06/05 07:43:52;;;;;;;6.05;1.92;;;25.30;99.90;;;;;;5057938;28;20542;-74
2021/06/05 07:46:19;;;;;;;4.95;1.77;;;25.50;99.90;;;;;;5058926;28;20562;-75
2021/06/05 07:48:45;;;;;;;2.78;1.77;;;25.50;99.90;;;;;;5043135;28;20568;-74
2021/06/05 07:51:12;;;;;;;3.58;1.70;;;25.60;99.90;;;;;;5060449;28;20920;-72
2021/06/05 07:53:38;;;;;;;4.00;2.10;;;25.80;99.90;;;;;;5047108;28;20550;-74
2021/06/05 07:56:05;;;;;;;5.97;2.30;;;25.90;99.90;;;;;;5059799;28;20182;-76
2021/06/05 07:58:32;;;;;;;4.03;1.83;;;26.00;99.90;;;;;;5070198;28;20179;-72
2021/06/05 08:00:58;;;;;;;3.20;1.70;;;25.90;99.90;;;;;;5059265;28;20190;-74
2021/06/05 08:03:25;;;;;;;4.32;1.80;;;26.00;99.90;;;;;;5055349;28;20253;-75
2021/06/05 08:05:52;;;;;;;3.90;1.90;;;26.10;99.20;;;;;;5060272;28;20714;-71
2021/06/05 08:08:19;;;;;;;3.28;1.90;;;26.30;99.80;;;;;;5058367;28;20198;-72
2021/06/05 08:10:46;;;;;;;3.05;1.77;;;26.40;99.00;;;;;;5058237;28;20199;-73
2021/06/05 08:13:13;;;;;;;6.28;2.03;;;26.40;99.90;;;;;;5059251;28;20187;-72
2021/06/05 08:15:45;;;;;;;3.25;2.10;;;26.60;99.90;;;;;;5040157;28;20295;-73
2021/06/05 08:18:14;;;;;;;3.90;1.88;;;26.50;99.90;;;;;;5044056;28;20174;-73
2021/06/05 08:20:51;;;;;;;3.30;1.80;;;26.50;99.90;;;;;;5055558;28;20194;-73
2021/06/05 08:23:19;;;;;;;3.70;2.28;;;26.60;99.90;;;;;;5061983;28;20209;-73
2021/06/05 08:25:48;;;;;;;7.38;1.95;;;26.50;99.90;;;;;;5058318;28;20192;-72
2021/06/05 08:28:17;;;;;;;5.10;2.13;;;26.80;99.90;;;;;;5057122;28;20194;-74
2021/06/05 08:30:47;;;;;;;4.85;1.83;;;26.80;99.90;;;;;;5043620;28;20595;-73
2021/06/05 08:33:15;;;;;;;7.30;1.70;;;26.90;98.10;;;;;;5042963;28;20218;-74
2021/06/05 08:35:43;;;;;;;4.90;2.13;;;26.90;97.00;;;;;;5059977;28;21386;-73
2021/06/05 08:38:13;;;;;;;6.25;1.80;;;27.00;97.80;;;;;;5062597;28;20558;-73
2021/06/05 08:40:56;;;;;;;13.43;2.28;;;27.20;98.00;;;;;;5059173;28;20517;-73
2021/06/05 08:43:46;;;;;;;3.25;1.70;;;27.30;98.80;;;;;;5045990;28;20633;-72
2021/06/05 08:46:22;;;;;;;3.15;2.00;;;27.20;97.40;;;;;;5044773;28;20190;-75
2021/06/05 08:48:48;;;;;;;3.22;1.88;;;27.30;98.60;;;;;;5058721;28;20232;-74
2021/06/05 08:51:39;;;;;;;8.68;2.00;;;27.40;96.70;;;;;;5047000;28;20253;-74
2021/06/05 08:54:30;;;;;;;7.10;1.77;;;27.40;97.60;;;;;;5056978;28;20317;-74
2021/06/05 08:57:11;;;;;;;5.13;1.80;;;27.40;97.30;;;;;;5042321;28;20187;-72
2021/06/05 08:59:40;;;;;;;8.65;2.15;;;27.50;96.80;;;;;;5056918;28;20221;-71
2021/06/05 09:02:08;;;;;;;2.95;1.92;;;27.60;96.00;;;;;;5062305;28;20257;-74
2021/06/05 09:04:36;;;;;;;2.97;1.80;;;27.70;94.90;;;;;;5059653;28;20281;-70
2021/06/05 09:07:14;;;;;;;3.88;1.70;;;27.80;93.40;;;;;;5056555;28;20283;-71
2021/06/05 09:09:47;;;;;;;5.32;1.98;;;27.80;93.30;;;;;;5056707;28;20202;-71
2021/06/05 09:12:15;;;;;;;7.03;1.80;;;27.70;92.30;;;;;;5061710;28;20205;-71
2021/06/05 09:14:44;;;;;;;8.57;1.80;;;27.80;92.90;;;;;;5064071;28;20214;-72
2021/06/05 09:17:46;;;;;;;5.18;1.73;;;27.80;94.20;;;;;;5076453;28;20524;-71
2021/06/05 09:21:00;;;;;;;3.10;1.73;;;27.90;95.90;;;;;;5063927;28;20206;-71
2021/06/05 09:23:38;;;;;;;4.90;2.10;;;28.20;94.50;;;;;;5062381;28;20266;-71
2021/06/05 09:26:24;;;;;;;9.27;2.13;;;28.20;94.00;;;;;;5055845;28;20717;-73
2021/06/05 09:29:11;;;;;;;4.22;2.08;;;28.50;95.40;;;;;;5045252;28;20273;-73
2021/06/05 09:31:56;;;;;;;3.70;1.73;;;28.50;94.40;;;;;;5044617;28;20179;-71
2021/06/05 09:34:31;;;;;;;3.75;1.88;;;28.40;95.00;;;;;;5064992;28;20575;-74
2021/06/05 09:36:58;;;;;;;4.05;1.88;;;28.70;94.40;;;;;;5040798;28;20183;-72
2021/06/05 09:40:11;;;;;;;6.22;2.10;;;29.00;94.60;;;;;;5063841;28;20236;-72
2021/06/05 09:42:42;;;;;;;3.83;1.65;;;28.70;94.60;;;;;;5058931;28;20186;-72
2021/06/05 09:46:01;;;;;;;4.82;2.00;;;28.70;93.10;;;;;;5060960;28;20592;-73
2021/06/05 09:48:38;;;;;;;5.80;2.05;;;28.70;93.30;;;;;;5084543;28;20186;-71
2021/06/05 09:51:34;;;;;;;5.90;1.50;;;28.80;93.60;;;;;;5058313;28;20225;-73
2021/06/05 09:54:27;;;;;;;2.35;1.73;;;29.00;93.60;;;;;;5054312;28;20537;-70
2021/06/05 09:57:12;;;;;;;5.53;2.00;;;28.80;93.30;;;;;;5057266;28;20191;-70
2021/06/05 09:59:38;;;;;;;2.47;1.60;;;29.10;92.30;;;;;;5043803;28;20223;-70
2021/06/05 10:02:22;;;;;;;5.10;2.00;;;29.20;92.10;;;;;;5055334;28;20184;-70
2021/06/05 10:05:34;;;;;;;2.65;1.50;;;29.30;90.70;;;;;;5059993;28;20200;-70
2021/06/05 10:08:41;;;;;;;2.90;2.00;;;29.20;90.80;;;;;;5053338;28;20530;-70
2021/06/05 10:11:35;;;;;;;8.18;1.70;;;29.40;88.90;;;;;;5060001;28;20599;-72
2021/06/05 10:14:15;;;;;;;4.53;2.00;;;29.50;89.60;;;;;;5040663;28;20204;-71
2021/06/05 10:17:01;;;;;;;4.93;2.00;;;29.50;90.30;;;;;;5054548;28;20635;-72
2021/06/05 10:19:49;;;;;;;5.38;2.10;;;29.50;91.40;;;;;;5060616;28;20221;-69
2021/06/05 10:22:16;;;;;;;6.85;2.38;;;29.30;92.30;;;;;;5058047;28;20228;-72
2021/06/05 10:25:14;;;;;;;4.40;1.88;;;29.40;92.10;;;;;;5052110;28;20183;-70
2021/06/05 10:27:45;;;;;;;4.93;2.17;;;29.00;91.90;;;;;;5052863;28;20671;-73
2021/06/05 10:30:42;;;;;;;5.18;1.90;;;28.80;92.50;;;;;;5060003;28;20183;-72
2021/06/05 10:33:34;;;;;;;5.85;2.00;;;29.00;92.90;;;;;;5064917;28;20288;-72
2021/06/05 10:36:06;;;;;;;6.07;1.70;;;28.80;92.90;;;;;;5050403;28;20194;-71
2021/06/05 10:38:54;;;;;;;7.90;2.05;;;29.00;93.40;;;;;;5058290;28;20654;-74
2021/06/05 10:41:37;;;;;;;4.80;2.03;;;28.80;93.00;;;;;;5046406;28;20188;-72
2021/06/05 10:44:06;;;;;;;8.10;2.10;;;28.40;93.70;;;;;;5063569;28;20192;-71
2021/06/05 10:47:04;;;;;;;5.40;2.00;;;28.70;93.80;;;;;;5046651;28;20210;-71
2021/06/05 10:49:51;;;;;;;5.60;2.17;;;28.80;94.00;;;;;;5046206;28;20195;-72
2021/06/05 10:52:35;;;;;;;6.07;2.10;;;28.70;94.30;;;;;;5063345;28;20217;-71
2021/06/05 10:55:19;;;;;;;9.25;2.42;;;29.00;94.10;;;;;;5045714;28;20645;-73
2021/06/05 10:57:52;;;;;;;10.50;2.35;;;29.00;94.30;;;;;;5062147;28;20705;-71
2021/06/05 11:01:00;;;;;;;10.07;2.38;;;29.10;93.80;;;;;;5065492;28;20179;-72
2021/06/05 11:03:26;;;;;;;4.03;1.90;;;28.80;93.80;;;;;;5048472;28;20183;-72
2021/06/05 11:06:09;;;;;;;5.80;2.15;;;28.80;94.20;;;;;;5045445;28;20207;-72
2021/06/05 11:09:31;;;;;;;20.45;3.00;;;28.70;94.30;;;;;;5060908;28;20285;-73
2021/06/05 11:12:13;;;;;;;5.65;2.10;;;28.20;94.30;;;;;;5044853;28;20538;-72
2021/06/05 11:14:42;;;;;;;6.95;2.00;;;28.70;93.70;;;;;;5058706;28;20211;-72
2021/06/05 11:17:27;;;;;;;15.38;3.03;;;28.90;93.40;;;;;;5058971;28;20683;-73
2021/06/05 11:20:04;;;;;;;11.60;2.20;;;28.70;93.10;;;;;;5047406;28;20253;-71
2021/06/05 11:22:51;;;;;;;5.88;1.83;;;28.90;92.70;;;;;;5067100;28;20190;-72
2021/06/05 11:25:18;;;;;;;29.95;4.18;;;28.70;92.90;;;;;;5061474;28;20225;-71
2021/06/05 11:27:52;;;;;;;11.25;2.80;;;28.30;93.30;;;;;;5060120;28;20191;-72
2021/06/05 11:30:23;;;;;;;10.93;2.30;;;28.50;93.70;;;;;;5064370;28;20520;-73
2021/06/05 11:33:08;;;;;;;3.83;2.00;;;28.80;93.20;;;;;;5061602;28;20180;-71
2021/06/05 11:36:00;;;;;;;9.40;2.15;;;28.80;93.30;;;;;;5058627;28;20238;-72
2021/06/05 11:38:26;;;;;;;6.50;2.13;;;28.90;93.90;;;;;;5060791;28;20182;-72
2021/06/05 11:41:02;;;;;;;7.30;2.30;;;28.80;93.60;;;;;;5063126;28;20193;-71
2021/06/05 11:43:29;;;;;;;8.23;2.75;;;28.90;93.90;;;;;;5059600;28;20890;-71
2021/06/05 11:46:04;;;;;;;7.47;2.20;;;28.90;94.30;;;;;;5061716;28;20182;-72
2021/06/05 11:48:51;;;;;;;6.82;2.05;;;29.00;93.70;;;;;;5060666;28;20182;-71
2021/06/05 11:51:20;;;;;;;4.03;2.05;;;28.90;93.10;;;;;;5062118;28;20182;-72
2021/06/05 11:54:12;;;;;;;16.67;3.00;;;28.80;92.10;;;;;;5046353;28;20237;-72
2021/06/05 11:56:58;;;;;;;15.63;2.25;;;28.30;93.50;;;;;;5054478;28;20316;-70
2021/06/05 11:59:39;;;;;;;5.07;1.70;;;28.90;92.40;;;;;;5057635;28;20206;-71
2021/06/05 12:02:29;;;;;;;11.20;1.88;;;28.80;92.30;;;;;;5057377;28;20870;-71
2021/06/05 12:05:05;;;;;;;8.25;1.95;;;28.90;91.00;;;;;;5056988;28;20206;-71
2021/06/05 12:07:41;;;;;;;5.50;1.83;;;28.70;91.90;;;;;;5058996;28;20263;-71
2021/06/05 12:10:11;;;;;;;8.38;2.10;;;28.70;92.30;;;;;;5065487;28;20290;-71
2021/06/05 12:12:46;;;;;;;7.18;1.85;;;29.00;91.10;;;;;;5046841;28;20180;-70
2021/06/05 12:15:31;;;;;;;4.00;1.50;;;28.80;91.40;;;;;;5063421;28;20570;-71
2021/06/05 12:18:02;;;;;;;7.28;1.73;;;28.80;91.50;;;;;;5062812;28;20201;-71
2021/06/05 12:21:03;;;;;;;8.93;2.15;;;29.00;90.80;;;;;;5066486;28;20194;-72
2021/06/05 12:23:36;;;;;;;4.78;1.85;;;28.90;90.20;;;;;;5065063;28;20225;-72
2021/06/05 12:26:10;;;;;;;3.25;1.90;;;28.80;91.80;;;;;;5062619;28;20277;-72
2021/06/05 12:29:02;;;;;;;5.43;1.92;;;27.90;91.70;;;;;;5060228;28;20191;-72
2021/06/05 12:31:36;;;;;;;4.88;1.80;;;28.60;90.20;;;;;;5055851;28;20244;-71
2021/06/05 12:34:11;;;;;;;5.07;2.10;;;28.20;90.50;;;;;;5062689;28;20548;-73
2021/06/05 12:36:45;;;;;;;5.63;1.95;;;28.20;90.20;;;;;;5061166;28;20184;-71
2021/06/05 12:39:46;;;;;;;5.05;1.85;;;28.30;90.60;;;;;;5064910;28;20191;-72
2021/06/05 12:42:31;;;;;;;6.60;1.83;;;28.60;90.60;;;;;;5060674;28;20195;-73
2021/06/05 12:45:10;;;;;;;8.13;2.03;;;28.60;91.10;;;;;;5062289;28;20194;-71
2021/06/05 12:47:44;;;;;;;9.27;2.00;;;28.60;90.70;;;;;;5056560;28;20274;-72
2021/06/05 12:50:16;;;;;;;6.78;1.65;;;28.40;88.50;;;;;;5087555;28;20236;-72
2021/06/05 12:52:57;;;;;;;9.90;1.70;;;28.40;88.20;;;;;;5056309;28;20189;-72
2021/06/05 12:55:46;;;;;;;5.75;2.03;;;28.10;87.80;;;;;;5045127;28;20210;-73
2021/06/05 12:58:33;;;;;;;4.88;1.77;;;28.30;89.90;;;;;;5061720;28;20671;-71
2021/06/05 13:01:00;;;;;;;3.65;1.70;;;28.30;89.90;;;;;;5065564;28;20623;-71
2021/06/05 13:03:39;;;;;;;3.35;1.70;;;28.40;89.70;;;;;;5063152;28;20230;-71
2021/06/05 13:06:24;;;;;;;3.45;1.80;;;28.40;87.40;;;;;;5058611;28;20213;-73
2021/06/05 13:08:56;;;;;;;4.45;1.88;;;28.20;90.20;;;;;;5057679;28;20179;-73
2021/06/05 13:11:40;;;;;;;5.10;1.80;;;28.50;92.00;;;;;;5053335;28;20333;-72
2021/06/05 13:14:17;;;;;;;3.88;1.77;;;28.50;91.70;;;;;;5065093;28;20220;-74
2021/06/05 13:16:44;;;;;;;8.18;2.00;;;28.50;92.10;;;;;;5043673;28;20178;-71
2021/06/05 13:19:22;;;;;;;21.00;2.80;;;28.20;87.90;;;;;;5062697;28;20619;-70
2021/06/05 13:22:09;;;;;;;9.65;1.95;;;28.00;86.60;;;;;;5058736;28;20266;-73
2021/06/05 13:24:36;;;;;;;7.22;1.95;;;28.00;86.60;;;;;;5062522;28;20193;-73